createdAt,value
2023-02-15T00:00:56.789Z,1028.5
2023-02-15T00:07:02.632Z,1028.5
2023-02-15T00:13:07.986Z,1028.5
2023-02-15T00:19:14.328Z,1028.4
2023-02-15T00:25:20.100Z,1028.4
2023-02-15T00:31:25.994Z,1028.4
2023-02-15T00:37:32.268Z,1028.4
2023-02-15T00:43:38.478Z,1028.4
2023-02-15T00:49:44.508Z,1028.3
2023-02-15T00:55:50.425Z,1028.2
2023-02-15T01:01:56.198Z,1028.2
2023-02-15T01:08:01.789Z,1028.1
2023-02-15T01:14:08.192Z,1028
2023-02-15T01:20:14.356Z,1028
2023-02-15T01:26:20.327Z,1028
2023-02-15T01:32:26.400Z,1027.9
2023-02-15T01:38:32.088Z,1027.8
2023-02-15T01:44:38.264Z,1027.8
2023-02-15T01:50:44.675Z,1027.8
2023-02-15T01:56:50.353Z,1027.8
2023-02-15T02:02:56.046Z,1027.7
2023-02-15T02:09:02.386Z,1027.6
2023-02-15T02:15:07.756Z,1027.6
2023-02-15T02:21:13.740Z,1027.6
2023-02-15T02:27:19.915Z,1027.5
2023-02-15T02:33:26.114Z,1027.6
2023-02-15T02:39:32.015Z,1027.5
2023-02-15T02:45:38.152Z,1027.5
2023-02-15T02:51:43.672Z,1027.5
2023-02-15T02:57:49.425Z,1027.5
2023-02-15T03:03:55.105Z,1027.5
2023-02-15T03:10:00.579Z,1027.5
2023-02-15T03:16:06.832Z,1027.5
2023-02-15T03:22:12.551Z,1027.5
2023-02-15T03:28:18.783Z,1027.4
2023-02-15T03:34:24.907Z,1027.4
2023-02-15T03:40:31.089Z,1027.4
2023-02-15T03:46:37.147Z,1027.5
2023-02-15T03:52:43.270Z,1027.5
2023-02-15T03:58:49.270Z,1027.4
2023-02-15T04:04:55.430Z,1027.4
2023-02-15T04:11:01.203Z,1027.5
2023-02-15T04:17:08.016Z,1027.5
2023-02-15T04:23:14.188Z,1027.5
2023-02-15T04:29:20.021Z,1027.5
2023-02-15T04:35:25.939Z,1027.5
2023-02-15T04:41:32.034Z,1027.5
2023-02-15T04:47:37.913Z,1027.5
2023-02-15T04:53:44.314Z,1027.4
2023-02-15T04:59:50.080Z,1027.5
2023-02-15T05:05:55.868Z,1027.5
2023-02-15T05:12:02.040Z,1027.5
2023-02-15T05:18:08.232Z,1027.5
2023-02-15T05:24:14.472Z,1027.5
2023-02-15T05:30:20.464Z,1027.5
2023-02-15T05:36:26.797Z,1027.6
2023-02-15T05:42:33.193Z,1027.6
2023-02-15T05:48:39.165Z,1027.6
2023-02-15T05:54:45.361Z,1027.6
2023-02-15T06:00:51.746Z,1027.7
2023-02-15T06:06:57.957Z,1027.6
2023-02-15T06:13:03.712Z,1027.6
2023-02-15T06:19:09.695Z,1027.6
2023-02-15T06:25:15.959Z,1027.6
2023-02-15T06:31:21.977Z,1027.7
2023-02-15T06:37:28.051Z,1027.8
2023-02-15T06:43:34.032Z,1027.7
2023-02-15T06:49:40.208Z,1027.7
2023-02-15T06:55:46.287Z,1027.8
2023-02-15T07:01:52.843Z,1027.9
2023-02-15T07:07:58.982Z,1027.8
2023-02-15T07:14:04.752Z,1027.9
2023-02-15T07:20:11.369Z,1027.9
2023-02-15T07:26:17.025Z,1027.9
2023-02-15T07:32:22.712Z,1027.8
2023-02-15T07:38:28.873Z,1027.8
2023-02-15T07:44:34.950Z,1027.8
2023-02-15T07:50:40.850Z,1027.7
2023-02-15T07:56:47.426Z,1027.7
2023-02-15T08:02:53.441Z,1027.6
2023-02-15T08:08:59.584Z,1027.6
2023-02-15T08:15:05.998Z,1027.6
2023-02-15T08:21:12.392Z,1027.6
2023-02-15T08:27:17.959Z,1027.6
2023-02-15T08:33:24.755Z,1027.6
2023-02-15T08:39:30.731Z,1027.6
2023-02-15T08:45:36.745Z,1027.5
2023-02-15T08:51:43.538Z,1027.6
2023-02-15T08:57:49.510Z,1027.6
2023-02-15T09:03:55.674Z,1027.5
2023-02-15T09:10:01.874Z,1027.5
2023-02-15T09:16:07.654Z,1027.5
2023-02-15T09:22:13.832Z,1027.5
2023-02-15T09:28:19.677Z,1027.5
2023-02-15T09:34:25.789Z,1027.5
2023-02-15T09:40:31.990Z,1027.4
2023-02-15T09:46:38.155Z,1027.4
2023-02-15T09:52:44.346Z,1027.5
2023-02-15T09:58:50.350Z,1027.5
2023-02-15T10:04:56.822Z,1027.5
2023-02-15T10:11:03.643Z,1027.5
2023-02-15T10:17:09.724Z,1027.3
2023-02-15T10:23:18.263Z,1027.3
2023-02-15T10:29:24.397Z,1027.3
2023-02-15T10:35:29.513Z,1027.2
2023-02-15T10:41:35.368Z,1027.2
2023-02-15T10:47:41.281Z,1027.1
2023-02-15T10:53:47.453Z,1027.1
2023-02-15T10:59:53.624Z,1027
2023-02-15T11:05:59.514Z,1027
2023-02-15T11:12:05.382Z,1026.9
2023-02-15T11:18:11.364Z,1026.8
2023-02-15T11:24:17.162Z,1026.7
2023-02-15T11:30:22.996Z,1026.6
2023-02-15T11:36:29.118Z,1026.5
2023-02-15T11:42:35.283Z,1026.4
2023-02-15T11:48:41.466Z,1026.3
2023-02-15T11:54:47.641Z,1026.2
2023-02-15T12:00:53.348Z,1026.1
2023-02-15T12:07:04.149Z,1026.1
2023-02-15T12:13:10.323Z,1026
2023-02-15T12:19:15.879Z,1025.9
2023-02-15T12:25:21.670Z,1025.9
2023-02-15T12:31:28.181Z,1025.8
2023-02-15T12:37:34.436Z,1025.8
2023-02-15T12:43:40.519Z,1025.6
2023-02-15T12:49:49.902Z,1025.6
2023-02-15T12:55:56.105Z,1025.6
2023-02-15T13:02:01.860Z,1025.5
2023-02-15T13:08:08.034Z,1025.4
2023-02-15T13:14:14.039Z,1025.3
2023-02-15T13:20:20.208Z,1025.3
2023-02-15T13:26:26.601Z,1025.2
2023-02-15T13:32:31.986Z,1025.2
2023-02-15T13:38:37.562Z,1025.2
2023-02-15T13:44:43.325Z,1025.2
2023-02-15T13:50:49.402Z,1025.1
2023-02-15T13:56:55.195Z,1025.1
2023-02-15T14:03:01.272Z,1025.1
2023-02-15T14:09:07.324Z,1025.1
2023-02-15T14:15:13.203Z,1025.1
2023-02-15T14:21:19.413Z,1025.1
2023-02-15T14:27:25.581Z,1025.1
2023-02-15T14:33:35.669Z,1025.1
2023-02-15T14:39:42.472Z,1025
2023-02-15T14:45:48.055Z,1025
2023-02-15T14:51:54.246Z,1025
2023-02-15T14:58:00.437Z,1024.9
2023-02-15T15:04:06.442Z,1025
2023-02-15T15:10:12.376Z,1025
2023-02-15T15:16:18.375Z,1025
2023-02-15T15:22:24.459Z,1025
2023-02-15T15:28:30.116Z,1025
2023-02-15T15:34:36.716Z,1025
2023-02-15T15:40:42.925Z,1025.1
2023-02-15T15:46:48.928Z,1025.1
2023-02-15T15:52:54.876Z,1025.2
2023-02-15T15:59:00.835Z,1025.1
2023-02-15T16:05:07.021Z,1025.2
2023-02-15T16:11:12.946Z,1025.1
2023-02-15T16:17:19.228Z,1025.2
2023-02-15T16:23:24.563Z,1025.2
2023-02-15T16:29:30.359Z,1025.3
2023-02-15T16:35:36.305Z,1025.4
2023-02-15T16:41:42.514Z,1025.5
2023-02-15T16:47:48.699Z,1025.6
2023-02-15T16:53:54.877Z,1025.6
2023-02-15T17:00:00.675Z,1025.7
2023-02-15T17:06:06.838Z,1025.7
2023-02-15T17:12:12.820Z,1025.7
2023-02-15T17:18:18.873Z,1025.7
2023-02-15T17:24:25.204Z,1025.8
2023-02-15T17:30:31.692Z,1025.9
2023-02-15T17:36:38.197Z,1025.9
2023-02-15T17:42:44.345Z,1025.9
2023-02-15T17:48:50.550Z,1025.8
2023-02-15T17:54:56.547Z,1025.9
2023-02-15T18:01:03.348Z,1025.9
2023-02-15T18:07:10.150Z,1026
2023-02-15T18:13:16.125Z,1026
2023-02-15T18:19:22.188Z,1026
2023-02-15T18:25:28.280Z,1026
2023-02-15T18:31:35.173Z,1026
2023-02-15T18:37:41.270Z,1026.1
2023-02-15T18:43:46.828Z,1026.1
2023-02-15T18:49:52.428Z,1026.2
2023-02-15T18:55:58.589Z,1026.2
2023-02-15T19:02:05.026Z,1026.1
2023-02-15T19:08:11.041Z,1026.1
2023-02-15T19:14:17.368Z,1026.1
2023-02-15T19:20:23.558Z,1026.2
2023-02-15T19:26:46.256Z,1026.2
2023-02-15T19:32:51.985Z,1026.2
2023-02-15T19:38:57.867Z,1026.1
2023-02-15T19:45:04.075Z,1026.2
2023-02-15T19:51:10.054Z,1026.1
2023-02-15T19:57:16.275Z,1026.2
2023-02-15T20:03:22.306Z,1026.1
2023-02-15T20:09:28.464Z,1026.1
2023-02-15T20:15:34.697Z,1026.1
2023-02-15T20:21:40.992Z,1026.1
2023-02-15T20:27:47.022Z,1026
2023-02-15T20:33:52.956Z,1026
2023-02-15T20:39:59.129Z,1025.9
2023-02-15T20:46:05.775Z,1026
2023-02-15T20:52:12.117Z,1025.9
2023-02-15T20:58:18.186Z,1025.9
2023-02-15T21:04:24.080Z,1025.9
2023-02-15T21:10:29.981Z,1025.9
2023-02-15T21:16:35.690Z,1026
2023-02-15T21:22:41.818Z,1026
2023-02-15T21:28:47.995Z,1026.1
2023-02-15T21:34:54.194Z,1026
2023-02-15T21:41:00.411Z,1026
2023-02-15T21:47:07.039Z,1026
2023-02-15T21:53:12.750Z,1026
2023-02-15T21:59:18.847Z,1026
2023-02-15T22:05:24.906Z,1026.1
2023-02-15T22:11:30.084Z,1026
2023-02-15T22:17:35.639Z,1026
2023-02-15T22:23:41.628Z,1026
2023-02-15T22:29:47.824Z,1025.8
2023-02-15T22:35:53.987Z,1025.8
2023-02-15T22:42:00.187Z,1025.7
2023-02-15T22:48:05.981Z,1025.6
2023-02-15T22:54:12.339Z,1025.6
2023-02-15T23:00:18.217Z,1025.5
2023-02-15T23:06:24.132Z,1025.5
2023-02-15T23:12:30.336Z,1025.4
2023-02-15T23:18:36.271Z,1025.5
2023-02-15T23:24:42.068Z,1025.5
2023-02-15T23:30:48.646Z,1025.5
2023-02-15T23:36:55.051Z,1025.5
2023-02-15T23:43:01.139Z,1025.4
2023-02-15T23:49:07.184Z,1025.4
2023-02-15T23:55:13.422Z,1025.4
